sensor_id;sensor_type;location;lat;lon;timestamp;pressure;altitude;pressure_sealevel;temperature;humidity
23899;BME280;20544;50.018;20.010;2023-01-24T00:03:03;100625.60;;;1.84;100.00
23899;BME280;20544;50.018;20.010;2023-01-24T00:06:21;100629.00;;;1.86;100.00
23899;BME280;20544;50.018;20.010;2023-01-24T00:09:39;100621.89;;;1.88;100.00
23899;BME280;20544;50.018;20.010;2023-01-24T00:12:55;100619.27;;;1.88;100.00
23899;BME280;20544;50.018;20.010;2023-01-24T00:16:14;100610.41;;;1.90;100.00
23899;BME280;20544;50.018;20.010;2023-01-24T00:19:31;100621.73;;;1.91;100.00
23899;BME280;20544;50.018;20.010;2023-01-24T00:22:47;100623.34;;;1.93;100.00
23899;BME280;20544;50.018;20.010;2023-01-24T00:26:04;100619.13;;;1.91;100.00
23899;BME280;20544;50.018;20.010;2023-01-24T00:29:24;100621.73;;;1.91;100.00
23899;BME280;20544;50.018;20.010;2023-01-24T00:32:40;100628.67;;;1.92;100.00
23899;BME280;20544;50.018;20.010;2023-01-24T00:35:56;100628.67;;;1.92;100.00
23899;BME280;20544;50.018;20.010;2023-01-24T00:39:15;100635.52;;;1.94;100.00
23899;BME280;20544;50.018;20.010;2023-01-24T00:42:33;100639.80;;;1.96;100.00
23899;BME280;20544;50.018;20.010;2023-01-24T00:45:49;100631.11;;;1.95;100.00
23899;BME280;20544;50.018;20.010;2023-01-24T00:49:06;100641.49;;;1.97;100.00
23899;BME280;20544;50.018;20.010;2023-01-24T00:52:22;100632.03;;;1.94;100.00
23899;BME280;20544;50.018;20.010;2023-01-24T00:55:44;100637.36;;;1.92;100.00
23899;BME280;20544;50.018;20.010;2023-01-24T00:59:04;100636.52;;;1.92;100.00
23899;BME280;20544;50.018;20.010;2023-01-24T01:02:21;100636.52;;;1.92;100.00
23899;BME280;20544;50.018;20.010;2023-01-24T01:05:37;100634.65;;;1.94;100.00
23899;BME280;20544;50.018;20.010;2023-01-24T01:08:53;100629.41;;;1.94;100.00
23899;BME280;20544;50.018;20.010;2023-01-24T01:12:11;100645.20;;;1.92;100.00
23899;BME280;20544;50.018;20.010;2023-01-24T01:15:30;100640.80;;;1.93;100.00
23899;BME280;20544;50.018;20.010;2023-01-24T01:18:47;100646.04;;;1.93;100.00
23899;BME280;20544;50.018;20.010;2023-01-24T01:22:05;100649.52;;;1.93;100.00
23899;BME280;20544;50.018;20.010;2023-01-24T01:25:21;100644.38;;;1.92;100.00
23899;BME280;20544;50.018;20.010;2023-01-24T01:28:37;100646.13;;;1.91;100.00
23899;BME280;20544;50.018;20.010;2023-01-24T01:31:54;100646.30;;;1.88;100.00
23899;BME280;20544;50.018;20.010;2023-01-24T01:35:13;100640.12;;;1.89;100.00
23899;BME280;20544;50.018;20.010;2023-01-24T01:38:30;100645.44;;;1.88;100.00
23899;BME280;20544;50.018;20.010;2023-01-24T01:41:48;100648.98;;;1.87;100.00
23899;BME280;20544;50.018;20.010;2023-01-24T01:45:37;100647.14;;;1.89;100.00
23899;BME280;20544;50.018;20.010;2023-01-24T01:48:58;100657.52;;;1.90;100.00
23899;BME280;20544;50.018;20.010;2023-01-24T01:52:15;100655.91;;;1.88;100.00
23899;BME280;20544;50.018;20.010;2023-01-24T01:55:35;100659.30;;;1.90;100.00
23899;BME280;20544;50.018;20.010;2023-01-24T01:58:53;100660.91;;;1.92;100.00
23899;BME280;20544;50.018;20.010;2023-01-24T02:02:13;100661.00;;;1.91;100.00
23899;BME280;20544;50.018;20.010;2023-01-24T02:05:30;100656.69;;;1.90;100.00
23899;BME280;20544;50.018;20.010;2023-01-24T02:08:46;100655.08;;;1.87;100.00
23899;BME280;20544;50.018;20.010;2023-01-24T02:12:06;100652.38;;;1.89;100.00
23899;BME280;20544;50.018;20.010;2023-01-24T02:15:24;100654.16;;;1.88;100.00
23899;BME280;20544;50.018;20.010;2023-01-24T02:18:54;100648.29;;;1.83;100.00
23899;BME280;20544;50.018;20.010;2023-01-24T02:22:14;100641.22;;;1.85;100.00
23899;BME280;20544;50.018;20.010;2023-01-24T02:25:37;100642.08;;;1.86;100.00
23899;BME280;20544;50.018;20.010;2023-01-24T02:28:58;100652.55;;;1.86;100.00
23899;BME280;20544;50.018;20.010;2023-01-24T02:32:16;100634.97;;;1.88;100.00
23899;BME280;20544;50.018;20.010;2023-01-24T02:35:33;100631.61;;;1.86;100.00
23899;BME280;20544;50.018;20.010;2023-01-24T02:38:52;100643.00;;;1.85;100.00
23899;BME280;20544;50.018;20.010;2023-01-24T02:42:13;100642.08;;;1.86;100.00
23899;BME280;20544;50.018;20.010;2023-01-24T02:45:34;100637.68;;;1.86;100.00
23899;BME280;20544;50.018;20.010;2023-01-24T02:48:53;100640.20;;;1.88;100.00
23899;BME280;20544;50.018;20.010;2023-01-24T02:52:11;100634.88;;;1.89;100.00
23899;BME280;20544;50.018;20.010;2023-01-24T02:55:41;100641.13;;;1.87;100.00
23899;BME280;20544;50.018;20.010;2023-01-24T02:59:08;100652.55;;;1.86;100.00
23899;BME280;20544;50.018;20.010;2023-01-24T03:02:26;100657.00;;;1.84;100.00
23899;BME280;20544;50.018;20.010;2023-01-24T03:05:43;100651.59;;;1.87;100.00
23899;BME280;20544;50.018;20.010;2023-01-24T03:09:14;100656.83;;;1.87;100.00
23899;BME280;20544;50.018;20.010;2023-01-24T03:12:37;100658.70;;;1.85;100.00
23899;BME280;20544;50.018;20.010;2023-01-24T03:16:08;100656.23;;;1.82;100.00
23899;BME280;20544;50.018;20.010;2023-01-24T03:19:39;100657.92;;;1.83;100.00
23899;BME280;20544;50.018;20.010;2023-01-24T03:23:09;100660.54;;;1.83;100.00
23899;BME280;20544;50.018;20.010;2023-01-24T03:26:39;100660.63;;;1.81;100.00
23899;BME280;20544;50.018;20.010;2023-01-24T03:30:11;100670.09;;;1.84;100.00
23899;BME280;20544;50.018;20.010;2023-01-24T03:33:42;100668.30;;;1.84;100.00
23899;BME280;20544;50.018;20.010;2023-01-24T03:37:13;100666.61;;;1.83;100.00
23899;BME280;20544;50.018;20.010;2023-01-24T03:40:32;100663.94;;;1.85;100.00
23899;BME280;20544;50.018;20.010;2023-01-24T03:43:49;100668.25;;;1.86;100.00
23899;BME280;20544;50.018;20.010;2023-01-24T03:47:05;100662.23;;;1.84;100.00
23899;BME280;20544;50.018;20.010;2023-01-24T03:50:22;100657.00;;;1.84;100.00
23899;BME280;20544;50.018;20.010;2023-01-24T03:53:54;100661.55;;;1.80;100.00
23899;BME280;20544;50.018;20.010;2023-01-24T03:57:12;100658.10;;;1.80;100.00
23899;BME280;20544;50.018;20.010;2023-01-24T04:00:30;100663.39;;;1.78;100.00
23899;BME280;20544;50.018;20.010;2023-01-24T04:03:48;100657.33;;;1.77;100.00
23899;BME280;20544;50.018;20.010;2023-01-24T04:07:04;100663.39;;;1.78;100.00
23899;BME280;20544;50.018;20.010;2023-01-24T04:10:25;100662.64;;;1.76;100.00
23899;BME280;20544;50.018;20.010;2023-01-24T04:13:41;100658.33;;;1.75;100.00
23899;BME280;20544;50.018;20.010;2023-01-24T04:16:58;100665.41;;;1.73;100.00
23899;BME280;20544;50.018;20.010;2023-01-24T04:20:17;100654.02;;;1.74;100.00
23899;BME280;20544;50.018;20.010;2023-01-24T04:23:34;100661.03;;;1.73;100.00
23899;BME280;20544;50.018;20.010;2023-01-24T04:26:51;100658.64;;;1.69;100.00
23899;BME280;20544;50.018;20.010;2023-01-24T04:30:11;100657.78;;;1.68;100.00
23899;BME280;20544;50.018;20.010;2023-01-24T04:33:30;100655.16;;;1.68;100.00
23899;BME280;20544;50.018;20.010;2023-01-24T04:36:46;100666.50;;;1.69;100.00
23899;BME280;20544;50.018;20.010;2023-01-24T04:40:05;100659.56;;;1.68;100.00
23899;BME280;20544;50.018;20.010;2023-01-24T04:43:24;100664.80;;;1.68;100.00
23899;BME280;20544;50.018;20.010;2023-01-24T04:46:40;100666.72;;;1.64;100.00
23899;BME280;20544;50.018;20.010;2023-01-24T04:49:57;100668.33;;;1.67;100.00
23899;BME280;20544;50.018;20.010;2023-01-24T04:53:13;100670.03;;;1.68;100.00
23899;BME280;20544;50.018;20.010;2023-01-24T04:56:30;100670.86;;;1.68;100.00
23899;BME280;20544;50.018;20.010;2023-01-24T04:59:47;100672.73;;;1.66;100.00
23899;BME280;20544;50.018;20.010;2023-01-24T05:03:03;100672.64;;;1.68;100.00
23899;BME280;20544;50.018;20.010;2023-01-24T05:06:20;100671.03;;;1.65;100.00
23899;BME280;20544;50.018;20.010;2023-01-24T05:09:37;100673.65;;;1.65;100.00
23899;BME280;20544;50.018;20.010;2023-01-24T05:12:53;100679.66;;;1.67;100.00
23899;BME280;20544;50.018;20.010;2023-01-24T05:16:10;100682.28;;;1.67;100.00
23899;BME280;20544;50.018;20.010;2023-01-24T05:19:27;100675.17;;;1.69;100.00
23899;BME280;20544;50.018;20.010;2023-01-24T05:22:43;100677.05;;;1.67;100.00
23899;BME280;20544;50.018;20.010;2023-01-24T05:26:02;100678.40;;;1.74;100.00
23899;BME280;20544;50.018;20.010;2023-01-24T05:29:20;100682.66;;;1.77;100.00
23899;BME280;20544;50.018;20.010;2023-01-24T05:32:37;100679.03;;;1.80;100.00
23899;BME280;20544;50.018;20.010;2023-01-24T05:36:00;100684.19;;;1.81;100.00
23899;BME280;20544;50.018;20.010;2023-01-24T05:39:18;100685.88;;;1.82;100.00
23899;BME280;20544;50.018;20.010;2023-01-24T05:42:34;100679.64;;;1.85;100.00
23899;BME280;20544;50.018;20.010;2023-01-24T05:45:51;100685.63;;;1.87;100.00
23899;BME280;20544;50.018;20.010;2023-01-24T05:49:14;100686.57;;;1.86;100.00
23899;BME280;20544;50.018;20.010;2023-01-24T05:52:31;100694.42;;;1.86;100.00
23899;BME280;20544;50.018;20.010;2023-01-24T05:55:47;100691.80;;;1.86;100.00
23899;BME280;20544;50.018;20.010;2023-01-24T05:59:10;100693.56;;;1.85;100.00
23899;BME280;20544;50.018;20.010;2023-01-24T06:02:28;100704.80;;;1.87;100.00
23899;BME280;20544;50.018;20.010;2023-01-24T06:05:48;100696.09;;;1.87;100.00
23899;BME280;20544;50.018;20.010;2023-01-24T06:09:08;100705.64;;;1.88;100.00
23899;BME280;20544;50.018;20.010;2023-01-24T06:12:26;100703.80;;;1.90;100.00
23899;BME280;20544;50.018;20.010;2023-01-24T06:15:43;100705.64;;;1.88;100.00
23899;BME280;20544;50.018;20.010;2023-01-24T06:19:01;100704.80;;;1.87;100.00
23899;BME280;20544;50.018;20.010;2023-01-24T06:22:21;100710.88;;;1.88;100.00
23899;BME280;20544;50.018;20.010;2023-01-24T06:25:42;100713.58;;;1.86;100.00
23899;BME280;20544;50.018;20.010;2023-01-24T06:29:00;100724.88;;;1.87;100.00
23899;BME280;20544;50.018;20.010;2023-01-24T06:32:25;100727.49;;;1.87;100.00
23899;BME280;20544;50.018;20.010;2023-01-24T06:35:49;100725.75;;;1.87;100.00
23899;BME280;20544;50.018;20.010;2023-01-24T06:39:16;100727.44;;;1.88;100.00
23899;BME280;20544;50.018;20.010;2023-01-24T06:42:34;100737.97;;;1.87;100.00
23899;BME280;20544;50.018;20.010;2023-01-24T06:45:52;100724.19;;;1.83;100.00
23899;BME280;20544;50.018;20.010;2023-01-24T06:49:11;100735.52;;;1.84;100.00
23899;BME280;20544;50.018;20.010;2023-01-24T06:52:28;100737.36;;;1.82;100.00
23899;BME280;20544;50.018;20.010;2023-01-24T06:55:47;100737.45;;;1.80;100.00
23899;BME280;20544;50.018;20.010;2023-01-24T06:59:03;100742.51;;;1.83;100.00
23899;BME280;20544;50.018;20.010;2023-01-24T07:02:19;100736.44;;;1.83;100.00
23899;BME280;20544;50.018;20.010;2023-01-24T07:05:37;100742.67;;;1.80;100.00
23899;BME280;20544;50.018;20.010;2023-01-24T07:08:54;100746.13;;;1.81;100.00
23899;BME280;20544;50.018;20.010;2023-01-24T07:12:10;100743.59;;;1.79;100.00
23899;BME280;20544;50.018;20.010;2023-01-24T07:15:28;100747.99;;;1.78;100.00
23899;BME280;20544;50.018;20.010;2023-01-24T07:18:45;100754.06;;;1.79;100.00
23899;BME280;20544;50.018;20.010;2023-01-24T07:22:03;100757.55;;;1.80;100.00
23899;BME280;20544;50.018;20.010;2023-01-24T07:25:23;100755.77;;;1.80;100.00
23899;BME280;20544;50.018;20.010;2023-01-24T07:28:39;100761.00;;;1.80;100.00
23899;BME280;20544;50.018;20.010;2023-01-24T07:31:56;100759.38;;;1.77;100.00
23899;BME280;20544;50.018;20.010;2023-01-24T07:35:13;100762.69;;;1.81;100.00
23899;BME280;20544;50.018;20.010;2023-01-24T07:38:30;100767.06;;;1.81;100.00
23899;BME280;20544;50.018;20.010;2023-01-24T07:41:46;100767.84;;;1.83;100.00
23899;BME280;20544;50.018;20.010;2023-01-24T07:45:03;100771.30;;;1.83;100.00
23899;BME280;20544;50.018;20.010;2023-01-24T07:48:20;100774.78;;;1.84;100.00
23899;BME280;20544;50.018;20.010;2023-01-24T07:51:36;100783.46;;;1.84;100.00
23899;BME280;20544;50.018;20.010;2023-01-24T07:54:54;100782.55;;;1.85;100.00
23899;BME280;20544;50.018;20.010;2023-01-24T07:58:11;100790.39;;;1.85;100.00
23899;BME280;20544;50.018;20.010;2023-01-24T08:01:27;100787.78;;;1.85;100.00
23899;BME280;20544;50.018;20.010;2023-01-24T08:04:44;100785.02;;;1.88;100.00
23899;BME280;20544;50.018;20.010;2023-01-24T08:08:01;100792.70;;;1.91;100.00
23899;BME280;20544;50.018;20.010;2023-01-24T08:11:17;100791.09;;;1.89;100.00
23899;BME280;20544;50.018;20.010;2023-01-24T08:14:34;100795.33;;;1.91;100.00
23899;BME280;20544;50.018;20.010;2023-01-24T08:17:50;100787.34;;;1.94;100.00
23899;BME280;20544;50.018;20.010;2023-01-24T08:21:07;100791.79;;;1.92;100.00
23899;BME280;20544;50.018;20.010;2023-01-24T08:24:23;100799.55;;;1.94;100.00
23899;BME280;20544;50.018;20.010;2023-01-24T08:27:42;100800.34;;;1.96;100.00
23899;BME280;20544;50.018;20.010;2023-01-24T08:31:00;100798.50;;;1.98;100.00
23899;BME280;20544;50.018;20.010;2023-01-24T08:34:16;100806.19;;;2.01;100.00
23899;BME280;20544;50.018;20.010;2023-01-24T08:37:33;100809.89;;;1.97;100.00
23899;BME280;20544;50.018;20.010;2023-01-24T08:40:49;100813.42;;;1.96;100.00
23899;BME280;20544;50.018;20.010;2023-01-24T08:44:07;100814.34;;;1.95;100.00
23899;BME280;20544;50.018;20.010;2023-01-24T08:47:26;100816.13;;;1.94;100.00
23899;BME280;20544;50.018;20.010;2023-01-24T08:50:44;100809.11;;;1.95;100.00
23899;BME280;20544;50.018;20.010;2023-01-24T08:54:00;100816.27;;;1.91;100.00
23899;BME280;20544;50.018;20.010;2023-01-24T08:57:20;100813.56;;;1.93;100.00
23899;BME280;20544;50.018;20.010;2023-01-24T09:00:36;100816.97;;;1.95;100.00
23899;BME280;20544;50.018;20.010;2023-01-24T09:03:52;100815.34;;;1.92;100.00
23899;BME280;20544;50.018;20.010;2023-01-24T09:07:09;100816.27;;;1.91;100.00
23899;BME280;20544;50.018;20.010;2023-01-24T09:10:30;100820.58;;;1.92;100.00
23899;BME280;20544;50.018;20.010;2023-01-24T09:13:50;100820.58;;;1.92;100.00
23899;BME280;20544;50.018;20.010;2023-01-24T09:17:08;100817.88;;;1.94;100.00
23899;BME280;20544;50.018;20.010;2023-01-24T09:20:24;100828.27;;;1.96;100.00
23899;BME280;20544;50.018;20.010;2023-01-24T09:23:50;100823.03;;;1.96;100.00
23899;BME280;20544;50.018;20.010;2023-01-24T09:27:10;100824.91;;;1.93;100.00
23899;BME280;20544;50.018;20.010;2023-01-24T09:30:27;100818.10;;;1.89;100.00
23899;BME280;20544;50.018;20.010;2023-01-24T09:33:46;100825.81;;;1.92;100.00
23899;BME280;20544;50.018;20.010;2023-01-24T09:37:04;100814.56;;;1.90;100.00
23899;BME280;20544;50.018;20.010;2023-01-24T09:40:23;100815.48;;;1.89;100.00
23899;BME280;20544;50.018;20.010;2023-01-24T09:43:48;100821.50;;;1.91;100.00
23899;BME280;20544;50.018;20.010;2023-01-24T09:47:15;100816.27;;;1.91;100.00
23899;BME280;20544;50.018;20.010;2023-01-24T09:50:37;100816.13;;;1.94;100.00
23899;BME280;20544;50.018;20.010;2023-01-24T09:53:58;100816.05;;;1.96;100.00
23899;BME280;20544;50.018;20.010;2023-01-24T09:57:19;100815.17;;;1.96;100.00
23899;BME280;20544;50.018;20.010;2023-01-24T10:00:40;100815.96;;;1.98;100.00
23899;BME280;20544;50.018;20.010;2023-01-24T10:04:02;100815.96;;;1.98;100.00
23899;BME280;20544;50.018;20.010;2023-01-24T10:07:40;100815.43;;;1.91;100.00
23899;BME280;20544;50.018;20.010;2023-01-24T10:11:23;100804.57;;;1.99;100.00
23899;BME280;20544;50.018;20.010;2023-01-24T10:14:48;100805.27;;;2.02;100.00
23899;BME280;20544;50.018;20.010;2023-01-24T10:18:42;100811.59;;;1.98;100.00
23899;BME280;20544;50.018;20.010;2023-01-24T10:22:18;100812.20;;;2.03;100.00
23899;BME280;20544;50.018;20.010;2023-01-24T10:25:48;100807.88;;;2.02;100.00
23899;BME280;20544;50.018;20.010;2023-01-24T10:29:14;100812.12;;;2.05;100.00
23899;BME280;20544;50.018;20.010;2023-01-24T10:32:35;100808.58;;;2.06;100.00
23899;BME280;20544;50.018;20.010;2023-01-24T10:35:58;100800.73;;;2.06;100.00
23899;BME280;20544;50.018;20.010;2023-01-24T10:39:19;100801.87;;;2.00;100.00
23899;BME280;20544;50.018;20.010;2023-01-24T10:42:36;100804.48;;;2.00;100.00
23899;BME280;20544;50.018;20.010;2023-01-24T10:46:06;100796.80;;;1.97;100.00
23899;BME280;20544;50.018;20.010;2023-01-24T10:49:31;100802.95;;;1.96;100.00
23899;BME280;20544;50.018;20.010;2023-01-24T10:52:50;100802.48;;;1.88;100.00
23899;BME280;20544;50.018;20.010;2023-01-24T10:56:08;100798.95;;;1.89;100.00
23899;BME280;20544;50.018;20.010;2023-01-24T10:59:25;100796.19;;;1.92;100.00
23899;BME280;20544;50.018;20.010;2023-01-24T11:02:41;100792.79;;;1.90;100.00
23899;BME280;20544;50.018;20.010;2023-01-24T11:06:03;100785.72;;;1.92;100.00
23899;BME280;20544;50.018;20.010;2023-01-24T11:09:28;100783.77;;;1.96;100.00
23899;BME280;20544;50.018;20.010;2023-01-24T11:12:52;100779.23;;;1.99;100.00
23899;BME280;20544;50.018;20.010;2023-01-24T11:16:20;100776.55;;;2.01;100.00
23899;BME280;20544;50.018;20.010;2023-01-24T11:19:39;100774.69;;;2.03;100.00
23899;BME280;20544;50.018;20.010;2023-01-24T11:23:17;100766.69;;;2.06;100.00
23899;BME280;20544;50.018;20.010;2023-01-24T11:26:30;100763.81;;;2.10;100.00
23899;BME280;20544;50.018;20.010;2023-01-24T11:30:04;100762.20;;;2.08;100.00
23899;BME280;20544;50.018;20.010;2023-01-24T11:33:40;100761.28;;;2.09;100.00
23899;BME280;20544;50.018;20.010;2023-01-24T11:37:10;100765.59;;;2.10;100.00
23899;BME280;20544;50.018;20.010;2023-01-24T11:40:36;100767.44;;;2.08;100.00
23899;BME280;20544;50.018;20.010;2023-01-24T11:44:21;100762.20;;;2.08;100.00
23899;BME280;20544;50.018;20.010;2023-01-24T11:47:42;100758.44;;;2.14;100.00
23899;BME280;20544;50.018;20.010;2023-01-24T11:51:05;100763.76;;;2.12;100.00
23899;BME280;20544;50.018;20.010;2023-01-24T11:54:35;100764.81;;;2.08;100.00
23899;BME280;20544;50.018;20.010;2023-01-24T11:58:03;100755.35;;;2.05;100.00
23899;BME280;20544;50.018;20.010;2023-01-24T12:01:28;100758.45;;;1.96;100.00
23899;BME280;20544;50.018;20.010;2023-01-24T12:09:03;100756.06;;;1.91;100.00
23899;BME280;20544;50.018;20.010;2023-01-24T12:12:29;100752.75;;;1.88;100.00
23899;BME280;20544;50.018;20.010;2023-01-24T12:15:55;100747.69;;;1.85;100.00
23899;BME280;20544;50.018;20.010;2023-01-24T12:19:33;100742.28;;;1.88;100.00
23899;BME280;20544;50.018;20.010;2023-01-24T12:22:56;100736.44;;;1.83;100.00
23899;BME280;20544;50.018;20.010;2023-01-24T12:26:19;100743.59;;;1.79;100.00
23899;BME280;20544;50.018;20.010;2023-01-24T12:29:39;100736.61;;;1.80;100.00
23899;BME280;20544;50.018;20.010;2023-01-24T12:33:04;100742.06;;;1.75;100.00
23899;BME280;20544;50.018;20.010;2023-01-24T12:36:37;100732.73;;;1.69;100.00
23899;BME280;20544;50.018;20.010;2023-01-24T12:40:00;100743.16;;;1.71;100.00
23899;BME280;20544;50.018;20.010;2023-01-24T12:43:24;100743.20;;;1.69;100.00
23899;BME280;20544;50.018;20.010;2023-01-24T12:46:45;100756.38;;;1.68;100.00
23899;BME280;20544;50.018;20.010;2023-01-24T12:50:15;100746.73;;;1.68;100.00
23899;BME280;20544;50.018;20.010;2023-01-24T12:53:37;100753.75;;;1.68;100.00
23899;BME280;20544;50.018;20.010;2023-01-24T12:56:58;100752.06;;;1.67;100.00
23899;BME280;20544;50.018;20.010;2023-01-24T13:00:19;100759.91;;;1.67;100.00
23899;BME280;20544;50.018;20.010;2023-01-24T13:03:50;100758.38;;;1.63;100.00
23899;BME280;20544;50.018;20.010;2023-01-24T13:07:16;100761.99;;;1.60;100.00
23899;BME280;20544;50.018;20.010;2023-01-24T13:10:46;100766.14;;;1.64;100.00
23899;BME280;20544;50.018;20.010;2023-01-24T13:14:14;100777.77;;;1.58;100.00
23899;BME280;20544;50.018;20.010;2023-01-24T13:17:56;100779.52;;;1.58;100.00
23899;BME280;20544;50.018;20.010;2023-01-24T13:21:28;100769.06;;;1.58;100.00
23899;BME280;20544;50.018;20.010;2023-01-24T13:24:54;100778.07;;;1.52;100.00
23899;BME280;20544;50.018;20.010;2023-01-24T13:28:17;100771.14;;;1.51;100.00
23899;BME280;20544;50.018;20.010;2023-01-24T13:31:46;100777.38;;;1.49;100.00
23899;BME280;20544;50.018;20.010;2023-01-24T13:35:01;100776.38;;;1.51;100.00
23899;BME280;20544;50.018;20.010;2023-01-24T13:38:24;100772.84;;;1.52;100.00
23899;BME280;20544;50.018;20.010;2023-01-24T13:41:41;100783.30;;;1.52;100.00
23899;BME280;20544;50.018;20.010;2023-01-24T13:44:58;100783.14;;;1.55;100.00
23899;BME280;20544;50.018;20.010;2023-01-24T13:48:47;100796.92;;;1.59;100.00
23899;BME280;20544;50.018;20.010;2023-01-24T13:52:38;100793.52;;;1.57;100.00
23899;BME280;20544;50.018;20.010;2023-01-24T13:56:05;100797.84;;;1.58;100.00
23899;BME280;20544;50.018;20.010;2023-01-24T13:59:29;100806.69;;;1.55;100.00
23899;BME280;20544;50.018;20.010;2023-01-24T14:02:59;100807.59;;;1.54;100.00
23899;BME280;20544;50.018;20.010;2023-01-24T14:06:18;100809.38;;;1.54;100.00
23899;BME280;20544;50.018;20.010;2023-01-24T14:09:37;100803.53;;;1.49;100.00
23899;BME280;20544;50.018;20.010;2023-01-24T14:12:56;100809.75;;;1.46;100.00
23899;BME280;20544;50.018;20.010;2023-01-24T14:16:54;100804.53;;;1.46;100.00
23899;BME280;20544;50.018;20.010;2023-01-24T14:19:50;100807.89;;;1.48;100.00
23899;BME280;20544;50.018;20.010;2023-01-24T14:23:19;100813.66;;;1.37;100.00
23899;BME280;20544;50.018;20.010;2023-01-24T14:26:39;100816.73;;;1.45;100.00
23899;BME280;20544;50.018;20.010;2023-01-24T14:30:02;100830.97;;;1.40;100.00
23899;BME280;20544;50.018;20.010;2023-01-24T14:33:45;100836.25;;;1.38;100.00
23899;BME280;20544;50.018;20.010;2023-01-24T14:37:07;100847.99;;;1.29;100.00
23899;BME280;20544;50.018;20.010;2023-01-24T14:40:27;100835.70;;;1.32;100.00
23899;BME280;20544;50.018;20.010;2023-01-24T14:43:44;100833.09;;;1.32;100.00
23899;BME280;20544;50.018;20.010;2023-01-24T14:47:02;100838.48;;;1.28;100.00
23899;BME280;20544;50.018;20.010;2023-01-24T14:50:28;100846.17;;;1.32;100.00
23899;BME280;20544;50.018;20.010;2023-01-24T14:53:52;100852.59;;;1.24;100.00
23899;BME280;20544;50.018;20.010;2023-01-24T14:57:22;100847.45;;;1.23;100.00
23899;BME280;20544;50.018;20.010;2023-01-24T15:00:40;100844.05;;;1.21;100.00
23899;BME280;20544;50.018;20.010;2023-01-24T15:03:57;100848.52;;;1.19;100.00
23899;BME280;20544;50.018;20.010;2023-01-24T15:07:15;100850.50;;;1.13;100.00
23899;BME280;20544;50.018;20.010;2023-01-24T15:10:36;100852.88;;;1.18;100.00
23899;BME280;20544;50.018;20.010;2023-01-24T15:13:56;100843.28;;;1.19;100.00
23899;BME280;20544;50.018;20.010;2023-01-24T15:17:20;100845.19;;;1.15;100.00
23899;BME280;20544;50.018;20.010;2023-01-24T15:20:38;100855.65;;;1.15;100.00
23899;BME280;20544;50.018;20.010;2023-01-24T15:23:56;100853.95;;;1.14;100.00
23899;BME280;20544;50.018;20.010;2023-01-24T15:27:31;100846.10;;;1.14;100.00
23899;BME280;20544;50.018;20.010;2023-01-24T15:30:54;100856.41;;;1.17;100.00
23899;BME280;20544;50.018;20.010;2023-01-24T15:34:19;100852.83;;;1.20;100.00
23899;BME280;20544;50.018;20.010;2023-01-24T15:37:37;100846.66;;;1.21;100.00
23899;BME280;20544;50.018;20.010;2023-01-24T15:40:56;100849.27;;;1.21;100.00
23899;BME280;20544;50.018;20.010;2023-01-24T15:44:30;100841.38;;;1.22;100.00
23899;BME280;20544;50.018;20.010;2023-01-24T15:47:47;100850.84;;;1.25;100.00
23899;BME280;20544;50.018;20.010;2023-01-24T15:51:27;100843.48;;;1.14;100.00
23899;BME280;20544;50.018;20.010;2023-01-24T15:54:55;100846.73;;;1.19;100.00
23899;BME280;20544;50.018;20.010;2023-01-24T15:58:13;100845.39;;;1.10;100.00
23899;BME280;20544;50.018;20.010;2023-01-24T16:01:33;100831.13;;;1.18;100.00
23899;BME280;20544;50.018;20.010;2023-01-24T16:04:51;100837.90;;;1.22;100.00
23899;BME280;20544;50.018;20.010;2023-01-24T16:08:07;100841.30;;;1.24;100.00
23899;BME280;20544;50.018;20.010;2023-01-24T16:11:24;100837.77;;;1.25;100.00
23899;BME280;20544;50.018;20.010;2023-01-24T16:14:41;100849.94;;;1.26;100.00
23899;BME280;20544;50.018;20.010;2023-01-24T16:18:02;100846.73;;;1.19;100.00
23899;BME280;20544;50.018;20.010;2023-01-24T16:21:19;100840.88;;;1.14;100.00
23899;BME280;20544;50.018;20.010;2023-01-24T16:24:37;100843.48;;;1.14;100.00
23899;BME280;20544;50.018;20.010;2023-01-24T16:27:53;100843.20;;;1.20;100.00
23899;BME280;20544;50.018;20.010;2023-01-24T16:31:10;100850.89;;;1.23;100.00
23899;BME280;20544;50.018;20.010;2023-01-24T16:34:27;100852.47;;;1.27;100.00
23899;BME280;20544;50.018;20.010;2023-01-24T16:37:44;100849.06;;;1.25;100.00
23899;BME280;20544;50.018;20.010;2023-01-24T16:41:03;100849.27;;;1.21;100.00
23899;BME280;20544;50.018;20.010;2023-01-24T16:44:20;100847.60;;;1.20;100.00
23899;BME280;20544;50.018;20.010;2023-01-24T16:47:37;100844.75;;;1.24;100.00
23899;BME280;20544;50.018;20.010;2023-01-24T16:50:53;100852.27;;;1.32;100.00
23899;BME280;20544;50.018;20.010;2023-01-24T16:54:10;100849.27;;;1.21;100.00
23899;BME280;20544;50.018;20.010;2023-01-24T16:57:27;100840.67;;;1.19;100.00
23899;BME280;20544;50.018;20.010;2023-01-24T17:00:44;100830.97;;;1.21;100.00
23899;BME280;20544;50.018;20.010;2023-01-24T17:04:00;100821.03;;;1.10;100.00
23899;BME280;20544;50.018;20.010;2023-01-24T17:07:17;100824.77;;;1.04;100.00
23899;BME280;20544;50.018;20.010;2023-01-24T17:10:37;100812.05;;;0.96;100.00
23899;BME280;20544;50.018;20.010;2023-01-24T17:13:54;100819.11;;;0.94;100.00
23899;BME280;20544;50.018;20.010;2023-01-24T17:17:12;100827.96;;;1.11;100.00
23899;BME280;20544;50.018;20.010;2023-01-24T17:20:29;100836.36;;;1.18;100.00
23899;BME280;20544;50.018;20.010;2023-01-24T17:23:46;100838.11;;;1.17;100.00